Somerville, Massachusetts
Current Conditions -  °F | °C
As of 2:54 AM on Sunday 23 Nov 2014 (Local Time) from KBOS Reporting Station
Overcast Overcast  
Wind Chill: 39°   Ceiling: 11000
Heat Index: 45°   Visibility: 10mi
Dew Point: 25°   Wind: 13mph
Humidity: 46%   Direction: 230°SW
Pressure: 30.08"   Gusts: NA
Location:  42.39°N, 71.1°W
Report Text: KBOS 230754Z 23011KT 10SM BKN110 OVC250 07/M04 A3008 RMK AO2 SLP184 T00721039
Loading
Personal Weather Stations






























Interactive Weather Map New forecast layout! Learn more

10-Day Weather Forecast

Advertisements
Track Severe Weather on mobile